Flight Information

DEPARTURE
COLORADO SPRINGS, CO
Elevation:
6187
Runways:
13/31 - 8269x150 - ASPH-G
17R/35L - 11022x150 - ASPH-G
17L/35R - 13501x150 - CONC-G
Active PE Departure:
31 - 35L - 35R
Current PE ATIS:
E
Altimeter:
30.61
Remarks:
SIMULTANEOUS APPROACHES TO PARALLEL RUNWAYS IN USE. V F R DEPARTURES CONTACT CLEARANCE DELIVERY, ADVISE ON COURSE HEADING, ALTITUDE, AND IF FLIGHT FOLLOWING IS REQUESTED.
ATIS:
125 719-596-7040
Clearance Delivery:
134.45
Ground:
121.7
Tower:
SPRINGS TOWER 119.9
DESTINATION
,
Elevation:
TPA:
1000 (est.)


6084.1 NM81° True-11° Var69° HDG

Flight Plan:
(click to file on line)

1. Type
2. Aircraft Identification
3. Aircraft Type / Special Equipment
4. True Airspeed
kts
5. Departure Airport
(ICAO code)
6. Arriving Airport
(ICAO code)
7. Cruising Altitude
ft
8. Alternate Airport
(ICAO code)
9. Route of Flight
10. Remarks


00:00:00 Departure ATIS: Destination ATIS:

Clearance Limit:
Route:
Altitude: Expect in minutes
Frequency:
Transponder: (7500 Hijack / 7600 Lost Comms / 7700 Emergency)


KCOS 211754Z VRB05KT 10SM SCT047 SCT200 12/01 A3060 RMK AO2 SLP331 T01220006 10133 20050 50001
Time: 2021-09-21T17:54:00Z
1632247187
Winds: variable
Visibility: 10.0 sm
Clouds (AGL): SCT 4700
SCT 20000
Temperature: 12.2 C
Dew Point: 0.6 C
Pressure: 30.59941 in Hgbr


Notes:

Data extracted from FAA Digital Chart Supplement. Effective: 0901Z Thursday, AUG 12, 2021 to 0901Z Thursday, OCT 7, 2021
Current ATIS data is provided courtisy of PilotEdge.